createdAt,value
2023-02-11T00:01:36.882Z,35.41
2023-02-11T00:06:39.869Z,35.51
2023-02-11T00:11:42.717Z,35.49
2023-02-11T00:16:45.643Z,35.40
2023-02-11T00:21:48.733Z,35.06
2023-02-11T00:26:51.703Z,35.46
2023-02-11T00:31:54.642Z,36.25
2023-02-11T00:37:00.111Z,36.00
2023-02-11T00:42:03.403Z,37.25
2023-02-11T00:47:06.327Z,36.59
2023-02-11T00:52:09.276Z,36.39
2023-02-11T00:57:11.988Z,36.27
2023-02-11T01:02:14.892Z,35.81
2023-02-11T01:17:56.382Z,38.05
2023-02-11T01:22:59.073Z,37.84
2023-02-11T01:28:02.026Z,36.05
2023-02-11T01:33:07.078Z,36.26
2023-02-11T01:38:31.660Z,36.15
2023-02-11T01:43:42.894Z,35.32
2023-02-11T01:48:50.732Z,34.96
2023-02-11T01:54:16.980Z,36.11
2023-02-11T01:59:34.985Z,35.85
2023-02-11T02:04:46.359Z,36.11
2023-02-11T02:09:56.828Z,36.15
2023-02-11T02:15:36.893Z,36.80
2023-02-11T02:21:07.481Z,37.28
2023-02-11T02:26:31.781Z,37.11
2023-02-11T02:32:13.375Z,36.09
2023-02-11T02:37:25.103Z,36.23
2023-02-11T02:42:28.352Z,36.42
2023-02-11T02:47:31.371Z,36.06
2023-02-11T02:52:54.045Z,37.12
2023-02-11T02:58:24.196Z,37.56
2023-02-11T03:03:53.147Z,36.68
2023-02-11T03:09:04.362Z,37.19
2023-02-11T03:14:11.051Z,37.92
2023-02-11T03:19:20.249Z,38.00
2023-02-11T03:24:37.937Z,37.87
2023-02-11T03:29:56.144Z,37.06
2023-02-11T03:35:07.435Z,37.65
2023-02-11T03:40:13.846Z,36.56
2023-02-11T03:45:20.315Z,36.21
2023-02-11T03:50:25.352Z,37.54
2023-02-11T03:55:30.220Z,36.03
2023-02-11T04:00:36.923Z,35.61
2023-02-11T04:05:40.270Z,36.00
2023-02-11T04:10:43.107Z,36.04
2023-02-11T04:15:48.545Z,36.52
2023-02-11T04:20:51.914Z,37.02
2023-02-11T04:25:54.828Z,36.52
2023-02-11T04:30:57.765Z,37.17
2023-02-11T04:36:00.680Z,37.33
2023-02-11T04:41:03.579Z,37.86
2023-02-11T04:46:06.437Z,37.18
2023-02-11T04:51:09.167Z,36.41
2023-02-11T04:56:12.227Z,34.95
2023-02-11T05:01:16.073Z,34.09
2023-02-11T05:06:19.421Z,33.63
2023-02-11T05:11:25.147Z,34.05
2023-02-11T05:16:28.593Z,33.45
2023-02-11T05:21:31.673Z,31.27
2023-02-11T05:26:34.523Z,28.73
2023-02-11T05:31:37.395Z,26.51
2023-02-11T05:36:40.522Z,26.69
2023-02-11T05:41:43.294Z,24.61
2023-02-11T05:46:46.178Z,24.07
2023-02-11T05:51:49.315Z,24.35
2023-02-11T05:56:52.469Z,22.92
2023-02-11T06:01:55.495Z,22.41
2023-02-11T06:06:58.348Z,23.90
2023-02-11T06:12:01.167Z,25.39
2023-02-11T06:17:04.736Z,24.89
2023-02-11T06:22:07.741Z,24.82
2023-02-11T06:27:10.875Z,26.88
2023-02-11T06:32:36.872Z,26.59
2023-02-11T06:37:36.836Z,25.20
2023-02-11T06:42:39.933Z,25.23
2023-02-11T06:47:43.071Z,25.96
2023-02-11T06:52:46.271Z,26.01
2023-02-11T06:57:49.057Z,26.13
2023-02-11T07:02:51.933Z,25.56
2023-02-11T07:07:54.945Z,25.56
2023-02-11T07:12:58.898Z,25.72
2023-02-11T07:18:01.704Z,28.41
2023-02-11T07:23:04.789Z,28.62
2023-02-11T07:28:07.542Z,27.44
2023-02-11T07:33:10.328Z,29.91
2023-02-11T07:38:13.125Z,29.11
2023-02-11T07:43:16.223Z,30.73
2023-02-11T07:48:19.203Z,28.94
2023-02-11T07:53:22.380Z,31.06
2023-02-11T07:58:25.401Z,30.22
2023-02-11T08:03:28.735Z,30.63
2023-02-11T08:08:31.567Z,31.24
2023-02-11T08:13:34.678Z,30.92
2023-02-11T08:18:37.668Z,29.67
2023-02-11T08:23:42.622Z,30.45
2023-02-11T08:28:46.663Z,30.34
2023-02-11T08:33:49.971Z,30.44
2023-02-11T08:39:05.612Z,29.94
2023-02-11T08:44:15.048Z,29.64
2023-02-11T08:49:17.998Z,31.17
2023-02-11T08:54:20.961Z,30.29
2023-02-11T08:59:24.334Z,29.34
2023-02-11T09:04:27.199Z,30.28
2023-02-11T09:09:30.299Z,29.45
2023-02-11T09:14:33.355Z,29.27
2023-02-11T09:19:36.334Z,29.97
2023-02-11T09:24:39.212Z,29.55
2023-02-11T09:29:42.116Z,30.03
2023-02-11T09:34:45.080Z,28.93
2023-02-11T09:39:48.016Z,29.14
2023-02-11T09:44:51.255Z,29.81
2023-02-11T09:50:02.979Z,29.01
2023-02-11T09:55:17.470Z,28.94
2023-02-11T10:00:40.324Z,28.77
2023-02-11T10:06:16.635Z,28.85
2023-02-11T10:12:04.808Z,29.27
2023-02-11T10:17:19.111Z,29.11
2023-02-11T10:22:35.659Z,29.12
2023-02-11T10:27:38.596Z,28.82
2023-02-11T10:32:53.825Z,28.55
2023-02-11T10:37:57.179Z,29.26
2023-02-11T10:43:04.337Z,28.69
2023-02-11T10:48:42.633Z,28.82
2023-02-11T10:53:47.450Z,28.85
2023-02-11T10:59:21.749Z,28.27
2023-02-11T11:04:30.831Z,28.79
2023-02-11T11:09:46.141Z,29.08
2023-02-11T11:14:56.841Z,28.03
2023-02-11T11:20:32.397Z,28.11
2023-02-11T11:25:39.083Z,28.39
2023-02-11T11:30:43.515Z,28.12
2023-02-11T11:36:07.100Z,28.25
2023-02-11T11:41:29.412Z,28.32
2023-02-11T11:46:39.510Z,27.24
2023-02-11T11:51:48.160Z,27.68
2023-02-11T11:57:15.537Z,27.69
2023-02-11T12:02:57.392Z,27.82
2023-02-11T12:08:14.313Z,27.34
2023-02-11T12:13:32.258Z,27.50
2023-02-11T12:19:14.930Z,28.35
2023-02-11T12:24:24.425Z,27.65
2023-02-11T12:29:36.240Z,28.03
2023-02-11T12:34:39.183Z,28.28
2023-02-11T12:39:51.466Z,27.14
2023-02-11T12:44:54.101Z,27.04
2023-02-11T12:50:36.496Z,27.31
2023-02-11T12:55:45.043Z,27.39
2023-02-11T13:00:55.588Z,26.86
2023-02-11T13:06:05.647Z,27.53
2023-02-11T13:11:15.294Z,28.34
2023-02-11T13:16:40.844Z,28.53
2023-02-11T13:21:49.992Z,28.14
2023-02-11T13:27:08.097Z,28.73
2023-02-11T13:32:13.700Z,28.47
2023-02-11T13:37:38.904Z,28.82
2023-02-11T13:42:52.875Z,28.80
2023-02-11T13:48:08.538Z,28.93
2023-02-11T13:53:11.507Z,30.34
2023-02-11T13:58:15.624Z,30.37
2023-02-11T14:03:44.237Z,30.55
2023-02-11T14:09:11.863Z,31.77
2023-02-11T14:14:19.122Z,31.66
2023-02-11T14:19:40.237Z,31.28
2023-02-11T14:24:58.142Z,32.48
2023-02-11T14:30:09.783Z,31.82
2023-02-11T14:35:47.688Z,33.03
2023-02-11T14:41:06.934Z,33.61
2023-02-11T14:46:10.371Z,33.42
2023-02-11T14:51:19.841Z,34.26
2023-02-11T14:56:28.398Z,34.45
2023-02-11T15:01:36.914Z,34.64
2023-02-11T15:06:48.163Z,35.19
2023-02-11T15:11:52.508Z,34.84
2023-02-11T15:16:59.159Z,35.29
2023-02-11T15:22:07.893Z,35.39
2023-02-11T15:27:14.860Z,35.27
2023-02-11T15:32:18.016Z,35.06
2023-02-11T15:37:32.183Z,35.79
2023-02-11T15:42:47.378Z,35.98
2023-02-11T15:48:00.500Z,36.10
2023-02-11T15:53:40.845Z,35.72
2023-02-11T15:58:46.996Z,36.08
2023-02-11T16:03:51.454Z,36.01
2023-02-11T16:09:01.664Z,36.36
2023-02-11T16:14:20.135Z,35.48
2023-02-11T16:19:25.887Z,35.44
2023-02-11T16:24:33.838Z,35.92
2023-02-11T16:29:38.220Z,36.48
2023-02-11T16:34:40.846Z,36.07
2023-02-11T16:39:43.804Z,36.66
2023-02-11T16:44:46.807Z,37.05
2023-02-11T16:49:49.993Z,37.30
2023-02-11T16:54:53.293Z,37.52
2023-02-11T16:59:56.253Z,37.41
2023-02-11T17:05:01.653Z,37.88
2023-02-11T17:10:16.547Z,37.07
2023-02-11T17:15:19.441Z,37.85
2023-02-11T17:20:22.530Z,39.18
2023-02-11T17:25:25.338Z,38.22
2023-02-11T17:30:28.088Z,38.90
2023-02-11T17:35:31.012Z,38.30
2023-02-11T17:40:34.080Z,38.87
2023-02-11T17:45:42.589Z,38.62
2023-02-11T17:50:46.067Z,38.47
2023-02-11T17:55:49.356Z,38.83
2023-02-11T18:00:52.631Z,37.56
2023-02-11T18:06:00.700Z,38.41
2023-02-11T18:11:03.829Z,37.69
2023-02-11T18:16:16.049Z,37.68
2023-02-11T18:21:22.101Z,38.29
2023-02-11T18:26:28.471Z,38.70
2023-02-11T18:31:31.786Z,38.22
2023-02-11T18:36:35.884Z,38.04
2023-02-11T18:41:40.323Z,38.63
2023-02-11T18:46:43.253Z,38.64
2023-02-11T18:51:47.586Z,38.32
2023-02-11T18:56:50.439Z,38.22
2023-02-11T19:01:53.382Z,38.28
2023-02-11T19:06:56.373Z,38.29
2023-02-11T19:12:01.184Z,38.36
2023-02-11T19:17:06.911Z,38.68
2023-02-11T19:22:10.907Z,39.10
2023-02-11T19:27:13.924Z,38.71
2023-02-11T19:32:16.987Z,38.41
2023-02-11T19:37:19.920Z,37.67
2023-02-11T19:42:22.777Z,37.78
2023-02-11T19:47:28.087Z,38.16
2023-02-11T19:52:30.986Z,39.06
2023-02-11T19:57:34.202Z,39.93
2023-02-11T20:02:39.802Z,38.93
2023-02-11T20:07:42.611Z,39.19
2023-02-11T20:12:45.299Z,38.59
2023-02-11T20:17:48.233Z,37.99
2023-02-11T20:22:52.352Z,38.19
2023-02-11T20:27:55.353Z,38.29
2023-02-11T20:32:58.837Z,37.34
2023-02-11T20:38:03.300Z,38.21
2023-02-11T20:43:06.082Z,37.78
2023-02-11T20:48:08.969Z,38.17
2023-02-11T20:53:11.831Z,38.02
2023-02-11T20:58:14.590Z,37.46
2023-02-11T21:03:17.470Z,37.46
2023-02-11T21:08:20.350Z,37.05
2023-02-11T21:13:23.183Z,36.79
2023-02-11T21:18:26.394Z,37.19
2023-02-11T21:23:29.709Z,36.71
2023-02-11T21:28:32.918Z,36.52
2023-02-11T21:33:36.143Z,37.05
2023-02-11T21:38:38.946Z,36.98
2023-02-11T21:43:42.203Z,36.69
2023-02-11T21:48:45.051Z,36.52
2023-02-11T21:53:48.553Z,36.49
2023-02-11T21:58:54.361Z,37.12
2023-02-11T22:03:58.048Z,36.33
2023-02-11T22:09:07.960Z,36.54
2023-02-11T22:14:10.732Z,36.82
2023-02-11T22:19:14.605Z,37.51
2023-02-11T22:24:17.707Z,37.33
2023-02-11T22:29:20.626Z,37.77
2023-02-11T22:34:23.304Z,37.07
2023-02-11T22:39:26.239Z,36.55
2023-02-11T22:44:29.065Z,37.33
2023-02-11T22:49:33.462Z,37.22
2023-02-11T22:54:36.566Z,38.22
2023-02-11T22:59:39.493Z,38.30
2023-02-11T23:04:42.342Z,37.33
2023-02-11T23:09:45.457Z,36.85
2023-02-11T23:14:48.484Z,37.43
2023-02-11T23:19:51.523Z,39.23
2023-02-11T23:24:54.578Z,37.68
2023-02-11T23:29:57.703Z,38.23
2023-02-11T23:35:01.052Z,38.22
2023-02-11T23:40:04.540Z,38.10
2023-02-11T23:45:08.771Z,37.61
2023-02-11T23:50:12.489Z,38.93
2023-02-11T23:55:15.213Z,38.81
